Atlanta, GA (30316)

12:03 AM EDT on April 18, 2015 (GMT -0400)
East Atlanta Village | | Change Station
CLOSE
Current Station
Personal Weather Station
Location: Atlanta, GA
Elevation: 1020 ft
Nearby Weather Stations

Elev 1020 ft 33.74 °N, 84.34 °W | Updated 44 seconds ago

Overcast
Overcast
60.8 °F
Feels Like 60.8 °F
N
0.0
Wind Variable Wind from East
Gusts 0.0 mph

Today
High -- | Low -- °F
--% Chance of Precip.
Yesterday
High -- | Low -- °F
Precip. -- in
7:03 AM 8:10 PM
Waning Crescent, 1% visible
Pressure 30.02 in
Visibility 2.0 miles
Clouds Mostly Cloudy 500 ft
Overcast 2500 ft
Dew Point 61 °F
Humidity 100%
Rainfall 0.00 in
Snow Depth Not available.
UV 0 out of 12
Pollen 5.50 out of 12
Air Quality Not available.
Flu Activity Sporadic
METAR KATL 180352Z 09006KT 2SM -RA BR BKN005 OVC025 17/16 A3002 RMK AO2 SFC VIS 3 SLP164 CIG 003V007 P0001 T01670156

More Conditions Fewer Conditions

Pressure 30.02 in
Visibility 2.0 miles
Clouds Mostly Cloudy 500 ft
Overcast 2500 ft
Dew Point 61 °F
Humidity 100%
Rainfall 0.00 in
Snow Depth Not available.
UV 0 out of 12
Pollen 5.50 out of 12
Air Quality Not available.
Flu Activity Sporadic
METAR KATL 180352Z 09006KT 2SM -RA BR BKN005 OVC025 17/16 A3002 RMK AO2 SFC VIS 3 SLP164 CIG 003V007 P0001 T01670156

More Conditions Fewer Conditions

10-Day Weather Forecast

Almanac

Astronomy

Apr. 18, 2015 Rise Set
Actual Time
Civil Twilight
Nautical Twilight
Astronomical Twilight
Moon
Length of Visible Light
Length of Day
Tomorrow will be .
, % of the Moon is Illuminated

Today's Extremes

State Highs State Lows

Community

WunderPhotos

Upload Photos

1,814,322 photos uploaded!

WunderBlogs® & News

Nearby

Air Quality

  Air Quality AQ Index Pollutant
Not available.

Snow Depth

Station Depth Elevation

Earthquake Activity

City Distance Mag. Time & Date
Minimum magnitude displayed is 2.5.

Coastal Water Temperatures

Place Temperature

Stations

Nearby Weather Stations

Station Location Temp. Windchill Dew Point Humidity Wind Precip. Elev Updated Type